Bucholz Army Air Field Kwajalein MH
ICAO: PKWA
IATA:
Category: Medium
Scheduled Services:

Elevation: 9 ft
TransAlt. 18000 ft.

Airport Communications:
SAN FRANCISCO ARINC:299.8
KWAJALEIN APP:126.2
KWAJALEIN TWR:126.2

PKWA Zoom In..

If you have problems with the map follow the link
https://www.worldairports.se/pages/airport.php?
ICAO=PKWA

Runways:

(A) RW 06 length 6668 ft width 198 ft
---- / hdg 64

(B) RW 24 length 6668 ft width 198 ft
---- / hdg 244

Location; PKWA
Day. 21 / Time. 12.40 Zulu
* Altimeter: 29.86
* Temperature: 28° c. 82.4°f.
* Wind from: 080° Speed 10 kn.
Dewpoint: 26° c.
Visibility: 10 Statute Miles.
Clouds: Clear (automated report).

PKWA 211240Z AUTO 08010KT 10SM CLR 28/26 A2986 RMK AO2 T02810260


Wind From 080°
Speed 10 kn.

 
 
jpsmedia worldairports.se 2020   terms of use